Time;durP1;ratioP1;P1;durP2;ratioP2;P2;SDS_P1;SDS_P2;PMS_P1;PMS_P2;Temp;Humidity;BMP_temperature;BMP_pressure;BME280_temperature;BME280_humidity;BME280_pressure;Samples;Min_cycle;Max_cycle;Signal;HPM_P1;HPM_P2
2022/02/22 00:01:53;;;;;;;13.67;7.03;;;;;;;1.81;100.00;98690.98;1783454;79;21490;-73
2022/02/22 00:04:20;;;;;;;14.93;7.83;;;;;;;1.80;100.00;98688.45;1753811;79;21490;-71
2022/02/22 00:06:47;;;;;;;16.93;7.90;;;;;;;1.75;100.00;98688.88;1792615;79;21006;-72
2022/02/22 00:09:14;;;;;;;14.83;7.03;;;;;;;1.74;100.00;98693.05;1757350;79;21128;-72
2022/02/22 00:11:43;;;;;;;13.57;6.63;;;;;;;1.72;100.00;98690.53;1787481;79;21070;-71
2022/02/22 00:14:12;;;;;;;14.23;6.90;;;;;;;1.71;100.00;98681.68;1758748;79;21081;-70
2022/02/22 00:16:41;;;;;;;17.07;6.97;;;;;;;1.69;100.00;98682.83;1792220;79;21070;-71
2022/02/22 00:19:08;;;;;;;13.77;7.10;;;;;;;1.66;100.00;98670.62;1772377;78;20991;-71
2022/02/22 00:21:35;;;;;;;17.73;7.77;;;;;;;1.65;100.00;98666.30;1805174;79;21000;-72
2022/02/22 00:24:03;;;;;;;13.00;6.83;;;;;;;1.65;100.00;98665.47;1753868;79;21474;-72
2022/02/22 00:26:32;;;;;;;14.03;6.97;;;;;;;1.64;100.00;98664.61;1781340;79;21073;-72
2022/02/22 00:28:59;;;;;;;15.33;7.83;;;;;;;1.65;100.00;98659.63;1789295;79;21524;-73
2022/02/22 00:31:26;;;;;;;15.27;7.70;;;;;;;1.66;100.00;98650.64;1804838;79;21037;-71
2022/02/22 00:33:54;;;;;;;13.20;6.90;;;;;;;1.66;100.00;98647.97;1787929;79;21038;-71
2022/02/22 00:36:21;;;;;;;13.40;6.80;;;;;;;1.68;100.00;98640.69;1789203;79;21046;-71
2022/02/22 00:38:49;;;;;;;19.47;7.53;;;;;;;1.69;100.00;98646.34;1754087;79;21006;-72
2022/02/22 00:41:17;;;;;;;14.97;7.00;;;;;;;1.70;100.00;98643.22;1791738;79;21002;-69
2022/02/22 00:43:44;;;;;;;13.87;7.00;;;;;;;1.70;100.00;98644.55;1773036;78;21045;-71
2022/02/22 00:46:12;;;;;;;12.73;6.60;;;;;;;1.70;100.00;98644.05;1761832;79;21018;-71
2022/02/22 00:48:39;;;;;;;12.57;6.00;;;;;;;1.74;100.00;98637.92;1801922;79;21015;-71
2022/02/22 00:51:06;;;;;;;13.83;6.87;;;;;;;1.75;100.00;98632.09;1786479;79;21057;-71
2022/02/22 00:53:33;;;;;;;13.93;6.17;;;;;;;1.77;100.00;98620.31;1803632;79;20995;-71
2022/02/22 00:56:00;;;;;;;14.53;6.60;;;;;;;1.78;100.00;98624.63;1793099;79;21100;-70
2022/02/22 00:58:27;;;;;;;14.77;6.57;;;;;;;1.80;100.00;98611.98;1789369;79;21038;-71
2022/02/22 01:00:54;;;;;;;17.90;7.57;;;;;;;1.81;100.00;98603.02;1787996;79;21038;-71
2022/02/22 01:03:21;;;;;;;13.33;6.70;;;;;;;1.82;100.00;98596.68;1731766;78;21029;-72
2022/02/22 01:05:48;;;;;;;13.67;6.67;;;;;;;1.83;100.00;98593.04;1792346;79;21093;-72
2022/02/22 01:08:17;;;;;;;11.37;6.20;;;;;;;1.80;100.00;98587.17;1808341;79;21457;-72
2022/02/22 01:10:46;;;;;;;13.60;6.80;;;;;;;1.80;100.00;98597.33;1791753;79;21019;-71
2022/02/22 01:13:14;;;;;;;11.27;5.87;;;;;;;1.80;100.00;98594.66;1765559;79;21474;-70
2022/02/22 01:15:41;;;;;;;13.67;6.40;;;;;;;1.79;100.00;98591.67;1792469;79;21074;-71
2022/02/22 01:18:09;;;;;;;14.10;6.90;;;;;;;1.76;100.00;98595.96;1795874;79;21097;-71
2022/02/22 01:20:36;;;;;;;12.07;7.17;;;;;;;1.76;100.00;98593.80;1780045;79;21010;-69
2022/02/22 01:23:04;;;;;;;14.57;7.13;;;;;;;1.73;100.00;98594.92;1778922;79;21062;-72
2022/02/22 01:25:31;;;;;;;13.37;6.77;;;;;;;1.71;100.00;98595.07;1796806;79;21057;-71
2022/02/22 01:27:59;;;;;;;15.67;7.10;;;;;;;1.70;100.00;98589.41;1790001;79;20994;-72
2022/02/22 01:30:34;;;;;;;15.87;6.87;;;;;;;1.71;100.00;98594.24;1754664;78;21572;-72
2022/02/22 01:33:01;;;;;;;15.07;7.17;;;;;;;1.68;100.00;98587.88;1795575;79;21046;-72
2022/02/22 01:35:29;;;;;;;15.13;7.40;;;;;;;1.64;100.00;98583.84;1798710;79;21007;-71
2022/02/22 01:37:56;;;;;;;14.37;7.23;;;;;;;1.59;100.00;98583.45;1809531;79;21593;-71
2022/02/22 01:40:26;;;;;;;13.23;6.63;;;;;;;1.53;100.00;98588.88;1763794;78;21553;-71
2022/02/22 01:42:52;;;;;;;15.33;7.77;;;;;;;1.48;100.00;98596.48;1778752;79;20991;-70
2022/02/22 01:45:22;;;;;;;12.80;6.97;;;;;;;1.42;100.00;98599.75;1784891;79;21066;-71
2022/02/22 01:47:49;;;;;;;14.50;6.93;;;;;;;1.31;100.00;98608.27;1772881;79;21007;-72
2022/02/22 01:50:16;;;;;;;14.30;7.17;;;;;;;1.23;100.00;98607.33;1769798;79;21024;-71
2022/02/22 01:52:44;;;;;;;15.20;7.37;;;;;;;1.13;100.00;98616.67;1781350;79;21058;-70
2022/02/22 01:55:12;;;;;;;18.17;8.13;;;;;;;1.09;100.00;98624.11;1757519;78;20994;-71
2022/02/22 01:57:41;;;;;;;18.53;8.17;;;;;;;1.04;100.00;98622.37;1800921;79;21101;-72
2022/02/22 02:00:10;;;;;;;16.80;7.47;;;;;;;1.00;100.00;98609.52;1786969;79;21507;-72
2022/02/22 02:02:41;;;;;;;18.40;7.85;;;;;;;0.99;100.00;98611.31;1802796;79;21010;-72
2022/02/22 02:05:09;;;;;;;16.90;7.47;;;;;;;0.97;100.00;98606.63;1781617;79;21014;-71
2022/02/22 02:07:36;;;;;;;17.50;7.43;;;;;;;0.96;100.00;98587.67;1759121;80;21502;-71
2022/02/22 02:10:04;;;;;;;16.07;7.73;;;;;;;0.94;100.00;98563.03;1744513;78;21065;-73
2022/02/22 02:12:38;;;;;;;16.47;7.57;;;;;;;0.90;100.00;98558.49;1768074;79;21045;-70
2022/02/22 02:15:07;;;;;;;17.83;7.30;;;;;;;0.87;100.00;98558.78;1784498;79;21507;-72
2022/02/22 02:17:35;;;;;;;18.40;8.30;;;;;;;0.79;100.00;98555.16;1800102;79;21023;-72
2022/02/22 02:20:07;;;;;;;18.20;7.93;;;;;;;0.70;100.00;98551.05;1788328;79;21040;-72
2022/02/22 02:22:35;;;;;;;16.93;7.47;;;;;;;0.66;100.00;98535.53;1722365;81;21083;-70
2022/02/22 02:25:04;;;;;;;16.00;7.90;;;;;;;0.60;100.00;98525.45;1722524;81;21037;-71
2022/02/22 02:27:32;;;;;;;17.40;7.93;;;;;;;0.55;100.00;98487.34;1725017;81;21058;-71
2022/02/22 02:30:02;;;;;;;18.17;7.90;;;;;;;0.53;100.00;98465.34;1726572;81;21081;-71
2022/02/22 02:32:29;;;;;;;17.57;7.97;;;;;;;0.49;100.00;98458.16;1724722;82;21071;-71
2022/02/22 02:34:56;;;;;;;16.07;7.73;;;;;;;0.47;100.00;98448.66;1729426;81;21528;-73
2022/02/22 02:37:23;;;;;;;17.57;7.70;;;;;;;0.44;100.00;98433.81;1677157;82;21063;-71
2022/02/22 02:39:50;;;;;;;19.97;9.70;;;;;;;0.42;100.00;98413.69;1700739;82;21488;-71
2022/02/22 02:42:18;;;;;;;19.90;9.97;;;;;;;0.41;100.00;98397.38;1726688;81;21101;-71
2022/02/22 02:44:48;;;;;;;14.27;7.23;;;;;;;0.39;100.00;98374.94;1719278;82;21053;-72
2022/02/22 02:47:15;;;;;;;16.40;7.50;;;;;;;0.35;100.00;98341.16;1721481;81;21120;-73
2022/02/22 02:49:43;;;;;;;17.57;7.97;;;;;;;0.34;100.00;98286.80;1710408;83;21014;-73
2022/02/22 02:52:10;;;;;;;35.67;15.97;;;;;;;0.32;100.00;98247.06;1729650;81;21061;-71
2022/02/22 02:54:37;;;;;;;32.10;13.60;;;;;;;0.32;100.00;98205.00;1701264;83;21075;-71
2022/02/22 02:57:04;;;;;;;22.97;9.23;;;;;;;0.31;100.00;98108.46;1663993;84;21031;-72
2022/02/22 02:59:32;;;;;;;16.77;7.53;;;;;;;0.32;100.00;98034.84;1647245;86;21579;-71
2022/02/22 03:01:58;;;;;;;12.53;6.70;;;;;;;0.33;100.00;97974.88;1638488;85;21088;-71
2022/02/22 03:04:27;;;;;;;14.53;6.33;;;;;;;0.37;100.00;97915.58;1664137;85;21526;-72
2022/02/22 03:06:54;;;;;;;15.60;6.90;;;;;;;0.39;100.00;97844.49;1668346;83;21058;-72
2022/02/22 03:09:21;;;;;;;14.47;6.87;;;;;;;0.39;100.00;97758.09;1727278;82;21116;-72
2022/02/22 03:11:50;;;;;;;15.87;6.70;;;;;;;0.41;100.00;97662.18;1705449;83;21129;-72
2022/02/22 03:14:17;;;;;;;13.07;6.20;;;;;;;0.42;100.00;97682.47;1696956;83;21074;-73
2022/02/22 03:16:44;;;;;;;18.10;6.50;;;;;;;0.42;100.00;97678.48;1670819;83;21066;-71
2022/02/22 03:19:11;;;;;;;13.40;6.43;;;;;;;0.42;100.00;97699.24;1720900;82;21010;-72
2022/02/22 03:21:41;;;;;;;14.43;7.03;;;;;;;0.38;100.00;97693.42;1688607;84;21120;-71
2022/02/22 03:24:08;;;;;;;12.20;6.23;;;;;;;0.39;100.00;97692.95;1691681;84;21038;-71
2022/02/22 03:26:36;;;;;;;16.13;7.50;;;;;;;0.41;100.00;97682.98;1721176;81;21476;-72
2022/02/22 03:29:03;;;;;;;10.93;6.07;;;;;;;0.45;100.00;97688.80;1727645;82;21483;-70
2022/02/22 03:31:30;;;;;;;14.70;6.90;;;;;;;0.46;100.00;97687.30;1753406;81;21057;-74
2022/02/22 03:33:59;;;;;;;15.00;6.83;;;;;;;0.46;100.00;97683.31;1729993;81;21534;-71
2022/02/22 03:36:26;;;;;;;15.00;6.87;;;;;;;0.45;100.00;97679.48;1725522;81;21058;-72
2022/02/22 03:38:54;;;;;;;18.73;7.00;;;;;;;0.47;100.00;97686.29;1726749;81;21083;-71
2022/02/22 03:41:22;;;;;;;17.57;7.47;;;;;;;0.49;100.00;97684.80;1752930;81;20974;-72
2022/02/22 03:43:49;;;;;;;15.57;6.77;;;;;;;0.52;100.00;97678.66;1749691;81;21093;-71
2022/02/22 03:46:17;;;;;;;13.87;7.20;;;;;;;0.57;100.00;97672.85;1727164;82;21074;-72
2022/02/22 03:48:44;;;;;;;19.60;7.43;;;;;;;0.61;100.00;97678.16;1751361;81;21013;-72
2022/02/22 03:51:12;;;;;;;16.67;7.87;;;;;;;0.63;100.00;97680.16;1755679;81;21038;-72
2022/02/22 03:53:39;;;;;;;15.07;7.90;;;;;;;0.66;100.00;97678.50;1757586;81;21006;-71
2022/02/22 03:56:06;;;;;;;15.20;7.23;;;;;;;0.68;100.00;97679.16;1753454;80;21113;-71
2022/02/22 03:58:33;;;;;;;15.53;8.07;;;;;;;0.72;100.00;97673.00;1747877;82;20991;-72
2022/02/22 04:01:00;;;;;;;19.30;7.93;;;;;;;0.78;100.00;97674.16;1713283;82;21082;-69
2022/02/22 04:03:27;;;;;;;17.17;7.83;;;;;;;0.82;100.00;97666.20;1730084;82;20983;-72
2022/02/22 04:05:54;;;;;;;17.77;7.67;;;;;;;0.85;100.00;97658.72;1736041;82;21029;-73
2022/02/22 04:08:21;;;;;;;18.83;8.57;;;;;;;0.90;100.00;97656.86;1723281;82;21021;-71
2022/02/22 04:10:48;;;;;;;14.87;8.20;;;;;;;0.94;100.00;97652.38;1742829;81;21051;-71
2022/02/22 04:13:16;;;;;;;19.07;8.57;;;;;;;0.98;100.00;97646.22;1725434;82;21102;-71
2022/02/22 04:15:44;;;;;;;21.83;10.93;;;;;;;1.05;100.00;97650.38;1745584;81;21074;-71
2022/02/22 04:18:11;;;;;;;19.07;9.80;;;;;;;1.07;100.00;97641.20;1719219;82;21010;-72
2022/02/22 04:20:38;;;;;;;20.93;10.13;;;;;;;1.11;100.00;97638.53;1723699;82;21526;-71
2022/02/22 04:23:05;;;;;;;21.67;10.23;;;;;;;1.13;100.00;97637.03;1723860;82;21164;-74
2022/02/22 04:25:33;;;;;;;21.03;10.53;;;;;;;1.14;100.00;97633.38;1745016;82;21124;-74
2022/02/22 04:28:00;;;;;;;23.63;11.10;;;;;;;1.16;100.00;97631.88;1731531;82;21054;-75
2022/02/22 04:30:27;;;;;;;22.30;11.13;;;;;;;1.16;100.00;97623.39;1717744;82;20990;-75
2022/02/22 04:32:54;;;;;;;21.53;10.50;;;;;;;1.13;100.00;97623.24;1733481;82;21029;-72
2022/02/22 04:35:21;;;;;;;25.87;12.73;;;;;;;1.11;100.00;97623.06;1732968;82;21073;-68
2022/02/22 04:37:48;;;;;;;23.33;11.53;;;;;;;1.12;100.00;97627.41;1730883;82;21569;-69
2022/02/22 04:40:15;;;;;;;28.40;12.10;;;;;;;1.12;100.00;97624.73;1714164;82;21015;-69
2022/02/22 04:42:42;;;;;;;26.27;12.53;;;;;;;1.11;100.00;97635.87;1718831;82;21555;-72
2022/02/22 04:45:10;;;;;;;26.20;13.00;;;;;;;1.13;100.00;97625.91;1719060;82;21093;-70
2022/02/22 04:47:38;;;;;;;21.80;11.10;;;;;;;1.16;100.00;97622.56;1719815;82;21495;-70
2022/02/22 04:50:06;;;;;;;26.10;12.57;;;;;;;1.17;100.00;97632.20;1722084;82;21061;-71
2022/02/22 04:52:33;;;;;;;25.13;12.90;;;;;;;1.17;100.00;97625.55;1735806;82;21080;-70
2022/02/22 04:55:01;;;;;;;21.97;12.03;;;;;;;1.16;100.00;97623.39;1729848;82;21144;-71
2022/02/22 04:57:28;;;;;;;24.93;13.50;;;;;;;1.18;100.00;97627.22;1714666;82;21045;-70
2022/02/22 04:59:55;;;;;;;25.60;13.23;;;;;;;1.18;100.00;97640.53;1715628;83;21113;-69
2022/02/22 05:02:24;;;;;;;22.87;12.13;;;;;;;1.18;100.00;97629.87;1733321;82;21040;-70
2022/02/22 05:04:51;;;;;;;24.17;12.17;;;;;;;1.20;100.00;97635.86;1731034;82;21034;-70
2022/02/22 05:07:18;;;;;;;22.37;11.93;;;;;;;1.20;100.00;97639.34;1724477;82;21030;-70
2022/02/22 05:09:46;;;;;;;23.10;12.67;;;;;;;1.22;100.00;97633.85;1717643;82;21073;-70
2022/02/22 05:12:14;;;;;;;24.07;12.20;;;;;;;1.21;100.00;97627.70;1746835;82;21086;-70
2022/02/22 05:14:41;;;;;;;23.97;12.97;;;;;;;1.21;100.00;97630.37;1736342;82;21011;-70
2022/02/22 05:17:08;;;;;;;24.67;13.77;;;;;;;1.22;100.00;97623.20;1719108;82;21132;-71
2022/02/22 05:19:36;;;;;;;25.60;13.60;;;;;;;1.21;100.00;97621.05;1731027;82;21107;-70
2022/02/22 05:22:03;;;;;;;23.67;12.57;;;;;;;1.22;100.00;97612.55;1721190;82;21017;-71
2022/02/22 05:24:30;;;;;;;27.27;15.10;;;;;;;1.24;100.00;97611.40;1733444;82;21039;-70
2022/02/22 05:26:57;;;;;;;25.87;14.23;;;;;;;1.25;100.00;97606.38;1711105;82;21023;-70
2022/02/22 05:29:24;;;;;;;23.53;12.90;;;;;;;1.28;100.00;97603.90;1724045;82;21046;-71
2022/02/22 05:31:51;;;;;;;24.60;13.40;;;;;;;1.28;100.00;97611.38;1739124;82;21034;-71
2022/02/22 05:34:18;;;;;;;25.53;14.87;;;;;;;1.26;100.00;97609.90;1740678;82;21068;-70
2022/02/22 05:36:45;;;;;;;27.30;15.43;;;;;;;1.25;100.00;97618.88;1710439;82;21501;-70
2022/02/22 05:39:12;;;;;;;26.70;15.27;;;;;;;1.24;100.00;97614.54;1741858;81;21035;-70
2022/02/22 05:41:39;;;;;;;25.63;16.03;;;;;;;1.26;100.00;97624.03;1736017;82;21062;-71
2022/02/22 05:44:06;;;;;;;25.27;14.53;;;;;;;1.29;100.00;97628.17;1742727;81;21062;-70
2022/02/22 05:46:33;;;;;;;22.27;12.20;;;;;;;1.31;100.00;97627.02;1733560;82;21046;-71
2022/02/22 05:49:01;;;;;;;23.53;11.90;;;;;;;1.29;100.00;97620.19;1734622;82;21626;-69
2022/02/22 05:51:28;;;;;;;24.87;13.07;;;;;;;1.26;100.00;97624.03;1717812;82;21104;-71
2022/02/22 05:53:55;;;;;;;25.13;13.37;;;;;;;1.24;100.00;97627.38;1726991;82;21011;-69
2022/02/22 05:56:22;;;;;;;27.97;14.77;;;;;;;1.25;100.00;97614.38;1769083;79;21018;-71
2022/02/22 05:58:49;;;;;;;28.63;15.67;;;;;;;1.29;100.00;97613.53;1773538;78;21018;-71
2022/02/22 06:01:17;;;;;;;34.30;21.83;;;;;;;1.35;100.00;97613.34;1803153;79;21049;-73
2022/02/22 06:03:43;;;;;;;23.17;13.40;;;;;;;1.33;100.00;97594.39;1778551;78;21038;-71
2022/02/22 06:06:10;;;;;;;18.70;11.00;;;;;;;1.38;100.00;97587.23;1798698;79;21061;-72
2022/02/22 06:08:38;;;;;;;19.43;11.20;;;;;;;1.40;100.00;97578.55;1787267;79;21023;-71
2022/02/22 06:11:05;;;;;;;22.40;13.17;;;;;;;1.42;100.00;97582.38;1758076;78;21065;-71
2022/02/22 06:13:32;;;;;;;28.27;13.80;;;;;;;1.44;100.00;97569.72;1762108;79;21018;-71
2022/02/22 06:15:59;;;;;;;21.90;11.90;;;;;;;1.49;100.00;97564.19;1732940;81;21072;-73
2022/02/22 06:18:27;;;;;;;27.43;13.67;;;;;;;1.53;100.00;97550.02;1727335;81;21049;-71
2022/02/22 06:21:01;;;;;;;25.80;13.43;;;;;;;1.57;100.00;97542.52;1733598;81;21122;-73
2022/02/22 06:23:28;;;;;;;28.83;14.10;;;;;;;1.60;100.00;97531.01;1766446;80;21007;-71
2022/02/22 06:25:55;;;;;;;38.37;17.90;;;;;;;1.59;100.00;97529.34;1742837;80;21022;-70
2022/02/22 06:28:22;;;;;;;37.53;18.47;;;;;;;1.58;100.00;97525.54;1680155;82;20974;-71
2022/02/22 06:30:49;;;;;;;40.97;20.57;;;;;;;1.61;100.00;97526.50;1738047;80;21040;-72
2022/02/22 06:33:17;;;;;;;53.00;23.97;;;;;;;1.62;100.00;97519.67;1760399;80;21125;-70
2022/02/22 06:35:44;;;;;;;48.80;23.47;;;;;;;1.64;100.00;97529.64;1749684;81;21677;-70
2022/02/22 06:38:11;;;;;;;55.73;25.23;;;;;;;1.70;100.00;97520.96;1731702;81;21526;-71
2022/02/22 06:40:38;;;;;;;61.43;27.07;;;;;;;1.74;100.00;97509.45;1737112;81;21047;-69
2022/02/22 06:43:06;;;;;;;58.83;28.27;;;;;;;1.80;100.00;97502.06;1767470;80;21002;-72
2022/02/22 06:45:34;;;;;;;64.50;31.97;;;;;;;1.89;100.00;97498.84;1766799;80;21033;-70
2022/02/22 06:48:01;;;;;;;66.47;31.93;;;;;;;1.95;100.00;97499.95;1764994;80;21554;-70
2022/02/22 06:50:30;;;;;;;74.33;34.93;;;;;;;1.97;100.00;97490.79;1763316;80;21499;-70
2022/02/22 06:52:57;;;;;;;74.53;32.17;;;;;;;1.98;100.00;97494.27;1681062;84;21064;-71
2022/02/22 06:55:24;;;;;;;73.17;33.07;;;;;;;1.99;100.00;97500.77;1675228;83;21048;-70
2022/02/22 06:57:55;;;;;;;67.07;30.77;;;;;;;1.98;100.00;97500.42;1698138;83;21008;-71
2022/02/22 07:00:22;;;;;;;66.60;30.70;;;;;;;2.03;100.00;97502.57;1677456;83;21062;-70
2022/02/22 07:02:49;;;;;;;71.20;31.57;;;;;;;2.12;100.00;97489.48;1659503;84;20996;-71
2022/02/22 07:05:18;;;;;;;77.93;33.03;;;;;;;2.21;100.00;97481.77;1693026;83;21022;-72
2022/02/22 07:07:46;;;;;;;89.53;35.67;;;;;;;2.31;100.00;97472.68;1674509;83;21236;-71
2022/02/22 07:10:13;;;;;;;71.67;31.87;;;;;;;2.37;100.00;97467.42;1704516;83;21030;-72
2022/02/22 07:12:40;;;;;;;72.43;32.27;;;;;;;2.47;100.00;97459.99;1727129;82;21060;-72
2022/02/22 07:15:09;;;;;;;78.23;35.93;;;;;;;2.50;100.00;97457.48;1726024;82;21125;-70
2022/02/22 07:18:04;;;;;;;77.57;34.30;;;;;;;2.61;100.00;97430.33;1723139;81;22534;-70
2022/02/22 07:20:32;;;;;;;74.47;35.53;;;;;;;2.76;100.00;97430.83;1623763;87;21079;-71
2022/02/22 07:22:59;;;;;;;73.73;33.53;;;;;;;2.79;100.00;97426.47;1608430;88;21043;-69
2022/02/22 07:25:28;;;;;;;63.70;29.70;;;;;;;2.75;100.00;97438.02;1650067;85;21141;-72
2022/02/22 07:27:55;;;;;;;68.53;31.80;;;;;;;2.79;100.00;97445.14;1670416;85;21081;-68
2022/02/22 07:30:22;;;;;;;85.43;36.07;;;;;;;2.84;100.00;97436.90;1647604;86;21110;-69
2022/02/22 07:32:52;;;;;;;71.77;33.70;;;;;;;2.93;100.00;97426.13;1659554;85;21128;-70
2022/02/22 07:35:19;;;;;;;69.67;32.53;;;;;;;3.03;100.00;97420.81;1658708;85;21184;-69
2022/02/22 07:37:46;;;;;;;61.47;29.77;;;;;;;3.16;100.00;97403.30;1636859;86;21030;-70
2022/02/22 07:40:16;;;;;;;55.63;28.50;;;;;;;3.25;100.00;97414.69;1636858;85;21097;-69
2022/02/22 07:42:43;;;;;;;72.00;35.47;;;;;;;3.35;100.00;97406.69;1664742;85;21637;-69
2022/02/22 07:45:10;;;;;;;56.70;31.57;;;;;;;3.47;100.00;97403.02;1645537;85;21038;-70
2022/02/22 07:47:37;;;;;;;61.90;29.63;;;;;;;3.56;100.00;97391.18;1645241;85;21117;-70
2022/02/22 07:50:06;;;;;;;55.70;26.63;;;;;;;3.54;100.00;97403.91;1672723;85;21507;-69
2022/02/22 07:52:33;;;;;;;46.40;23.63;;;;;;;3.53;100.00;97400.09;1656144;84;21090;-71
2022/02/22 07:55:00;;;;;;;55.90;25.33;;;;;;;3.58;100.00;97390.99;1677985;83;21118;-71
2022/02/22 07:57:27;;;;;;;44.93;22.60;;;;;;;3.67;100.00;97395.19;1636719;86;21081;-70
2022/02/22 07:59:54;;;;;;;46.33;24.43;;;;;;;3.84;100.00;97394.38;1640096;85;21087;-71
2022/02/22 08:02:21;;;;;;;47.60;26.33;;;;;;;3.98;100.00;97388.64;1662705;85;21072;-71
2022/02/22 08:04:48;;;;;;;53.03;29.17;;;;;;;4.05;100.00;97387.36;1598524;88;21546;-71
2022/02/22 08:07:20;;;;;;;58.33;29.60;;;;;;;4.14;100.00;97383.52;1670878;83;21105;-70
2022/02/22 08:09:45;;;;;;;52.40;26.13;;;;;;;4.27;100.00;97382.28;1666625;85;21050;-71
2022/02/22 08:12:12;;;;;;;47.40;24.23;;;;;;;4.44;100.00;97378.77;1656895;84;21014;-71
2022/02/22 08:14:40;;;;;;;40.97;23.47;;;;;;;4.60;100.00;97370.92;1729857;80;21081;-70
2022/02/22 08:17:07;;;;;;;43.37;27.40;;;;;;;4.63;100.00;97373.21;1786635;80;21065;-72
2022/02/22 08:19:34;;;;;;;38.20;20.80;;;;;;;4.78;100.00;97360.20;1788776;80;20998;-71
2022/02/22 08:22:03;;;;;;;40.07;22.37;;;;;;;4.90;100.00;97355.92;1752065;80;21017;-70
2022/02/22 08:24:34;;;;;;;47.30;22.73;;;;;;;5.00;100.00;97360.91;1749927;80;21086;-70
2022/02/22 08:27:03;;;;;;;41.20;22.27;;;;;;;5.22;100.00;97355.70;1752728;80;21017;-70
2022/02/22 08:29:31;;;;;;;54.17;25.00;;;;;;;5.46;100.00;97350.81;1767115;80;21483;-71
2022/02/22 08:31:59;;;;;;;50.17;27.27;;;;;;;5.56;100.00;97360.62;1748482;80;20982;-72
2022/02/22 08:34:29;;;;;;;46.40;24.37;;;;;;;5.58;100.00;97386.70;1770541;80;21010;-73
2022/02/22 08:37:00;;;;;;;49.90;24.17;;;;;;;5.51;100.00;97412.68;1775382;80;21641;-72
2022/02/22 08:39:30;;;;;;;42.77;20.63;;;;;;;5.44;100.00;97443.48;1752202;79;21127;-73
2022/02/22 08:41:58;;;;;;;49.30;21.27;;;;;;;5.40;100.00;97462.34;1786734;79;21476;-71
2022/02/22 08:44:26;;;;;;;49.30;22.57;;;;;;;5.42;100.00;97486.23;1786325;80;20998;-72
2022/02/22 08:46:53;;;;;;;46.97;23.47;;;;;;;5.42;100.00;97509.86;1747936;80;21451;-69
2022/02/22 08:49:21;;;;;;;38.83;20.23;;;;;;;5.48;100.00;97529.66;1750995;80;21037;-70
2022/02/22 08:51:48;;;;;;;40.30;18.83;;;;;;;5.52;100.00;97545.66;1760430;80;21530;-70
2022/02/22 08:54:15;;;;;;;39.50;18.53;;;;;;;5.53;100.00;97559.91;1756507;80;21080;-69
2022/02/22 08:56:42;;;;;;;38.53;18.37;;;;;;;5.50;100.00;97585.23;1767877;80;21046;-71
2022/02/22 08:59:10;;;;;;;38.40;19.97;;;;;;;5.43;100.00;97609.84;1753382;80;21117;-71
2022/02/22 09:01:37;;;;;;;43.47;21.50;;;;;;;5.41;100.00;97638.69;1756333;80;21562;-71
2022/02/22 09:04:05;;;;;;;51.23;23.20;;;;;;;5.41;100.00;97649.41;1747439;80;21526;-70
2022/02/22 09:06:32;;;;;;;48.87;24.90;;;;;;;5.50;100.00;97664.30;1737808;80;21002;-71
2022/02/22 09:08:59;;;;;;;45.63;22.87;;;;;;;5.58;100.00;97664.16;1742529;81;21692;-70
2022/02/22 09:11:27;;;;;;;51.73;25.80;;;;;;;5.60;100.00;97677.37;1758683;80;21026;-70
2022/02/22 09:13:54;;;;;;;44.47;23.00;;;;;;;5.62;100.00;97689.54;1764445;80;21053;-72
2022/02/22 09:16:23;;;;;;;40.63;21.60;;;;;;;5.60;100.00;97692.94;1722983;81;21241;-71
2022/02/22 09:18:50;;;;;;;40.83;20.07;;;;;;;5.61;100.00;97705.82;1705594;83;21090;-71
2022/02/22 09:21:17;;;;;;;37.00;18.93;;;;;;;5.65;100.00;97706.58;1696430;83;21028;-71
2022/02/22 09:23:44;;;;;;;47.73;21.20;;;;;;;5.76;100.00;97711.09;1677378;84;20995;-70
2022/02/22 09:26:12;;;;;;;46.47;22.53;;;;;;;5.98;100.00;97718.55;1766073;80;21011;-70
2022/02/22 09:28:41;;;;;;;38.30;20.43;;;;;;;6.26;100.00;97707.74;1766153;80;21080;-71
2022/02/22 09:31:08;;;;;;;39.80;20.67;;;;;;;6.61;100.00;97699.59;1758702;80;21011;-69
2022/02/22 09:33:37;;;;;;;26.93;13.70;;;;;;;6.95;100.00;97695.92;1752589;80;21006;-68
2022/02/22 09:36:05;;;;;;;31.70;15.50;;;;;;;7.30;100.00;97688.20;1754291;81;21029;-71
2022/02/22 09:38:33;;;;;;;21.13;11.93;;;;;;;7.58;100.00;97693.34;1730759;80;20983;-71
2022/02/22 09:41:01;;;;;;;27.87;14.20;;;;;;;7.74;100.00;97697.45;1762872;80;21563;-71
2022/02/22 09:43:28;;;;;;;23.57;13.47;;;;;;;7.68;100.00;97722.48;1751235;80;21108;-71
2022/02/22 09:45:56;;;;;;;28.40;14.40;;;;;;;7.60;100.00;97736.99;1730205;80;21037;-71
2022/02/22 09:48:31;;;;;;;39.53;14.20;;;;;;;7.53;100.00;97753.65;1732090;80;21767;-71
2022/02/22 09:50:58;;;;;;;22.30;11.47;;;;;;;7.61;100.00;97765.52;1757121;80;21042;-72
2022/02/22 09:53:25;;;;;;;20.40;10.93;;;;;;;7.72;100.00;97772.13;1745190;80;21108;-70
2022/02/22 09:55:52;;;;;;;22.17;11.17;;;;;;;7.77;100.00;97772.34;1767831;79;21046;-73
2022/02/22 09:58:19;;;;;;;22.40;11.60;;;;;;;7.98;100.00;97768.59;1743060;80;21030;-71
2022/02/22 10:00:48;;;;;;;24.00;10.93;;;;;;;8.12;100.00;97767.52;1736361;81;21058;-71
2022/02/22 10:03:17;;;;;;;18.80;9.30;;;;;;;8.24;100.00;97769.05;1756766;80;21558;-72
2022/02/22 10:05:56;;;;;;;27.90;17.77;;;;;;;8.45;100.00;97777.94;1734053;81;21624;-72
2022/02/22 10:08:32;;;;;;;27.33;13.10;;;;;;;8.78;100.00;97776.95;1742354;80;20990;-72
2022/02/22 10:11:05;;;;;;;17.87;9.77;;;;;;;9.23;100.00;97793.09;1761487;80;21140;-71
2022/02/22 10:13:33;;;;;;;23.77;10.88;;;;;;;9.35;100.00;97894.34;1753328;80;21043;-71
2022/02/22 10:16:11;;;;;;;27.30;14.73;;;;;;;9.20;100.00;98040.24;1752731;80;21031;-69
2022/02/22 10:18:49;;;;;;;24.40;12.10;;;;;;;9.25;100.00;98121.34;1757473;80;21030;-70
2022/02/22 10:21:17;;;;;;;18.77;9.03;;;;;;;9.53;100.00;98218.22;1718659;82;21103;-71
2022/02/22 10:23:44;;;;;;;22.85;11.20;;;;;;;9.76;100.00;98360.83;1711833;82;21128;-70
2022/02/22 10:26:27;;;;;;;20.23;10.87;;;;;;;10.00;100.00;98467.89;1695003;81;21054;-72
2022/02/22 10:28:54;;;;;;;20.90;10.35;;;;;;;10.13;100.00;98544.03;1703046;82;21009;-70
2022/02/22 10:31:33;;;;;;;22.87;13.40;;;;;;;10.15;100.00;98596.01;1671135;83;20996;-71
2022/02/22 10:34:00;;;;;;;22.70;13.57;;;;;;;9.98;100.00;98631.98;1696276;82;21519;-71
2022/02/22 10:36:34;;;;;;;20.33;11.50;;;;;;;9.74;100.00;98657.11;1691395;83;21041;-70
2022/02/22 10:39:12;;;;;;;28.77;18.43;;;;;;;9.67;100.00;98657.07;1671955;83;21054;-71
2022/02/22 10:41:42;;;;;;;22.23;12.97;;;;;;;9.57;100.00;98669.26;1703521;82;21131;-73
2022/02/22 10:44:11;;;;;;;24.70;12.90;;;;;;;9.44;100.00;98688.90;1626883;85;21188;-73
2022/02/22 10:46:45;;;;;;;17.97;8.63;;;;;;;9.44;100.00;98689.73;1667257;83;21094;-70
2022/02/22 10:49:13;;;;;;;15.07;8.80;;;;;;;9.45;100.00;98694.07;1641176;85;21053;-72
2022/02/22 10:51:44;;;;;;;17.60;9.83;;;;;;;9.33;100.00;98721.30;1644685;84;21075;-71
2022/02/22 10:54:25;;;;;;;17.10;9.00;;;;;;;9.22;100.00;98727.20;1680006;84;21090;-71
2022/02/22 10:56:53;;;;;;;21.17;9.80;;;;;;;9.16;100.00;98730.69;1640381;86;21555;-71
2022/02/22 10:59:22;;;;;;;24.80;10.13;;;;;;;9.15;100.00;98727.66;1623507;86;21175;-69
2022/02/22 11:01:49;;;;;;;19.20;9.27;;;;;;;9.15;100.00;98723.61;1651378;85;21137;-71
2022/02/22 11:04:19;;;;;;;18.27;9.80;;;;;;;9.09;100.00;98722.02;1630055;87;21106;-69
2022/02/22 11:06:47;;;;;;;20.17;10.07;;;;;;;8.99;100.00;98730.11;1642391;85;21111;-71
2022/02/22 11:09:16;;;;;;;19.93;10.53;;;;;;;8.91;100.00;98733.25;1624606;87;21015;-71
2022/02/22 11:11:54;;;;;;;21.13;9.80;;;;;;;8.88;100.00;98732.81;1641191;85;21222;-73
2022/02/22 11:14:31;;;;;;;19.90;11.10;;;;;;;8.84;100.00;98722.09;1644120;85;21144;-71
2022/02/22 11:17:02;;;;;;;20.47;10.17;;;;;;;8.83;100.00;98725.80;1676972;84;21047;-71
2022/02/22 11:19:37;;;;;;;21.43;11.33;;;;;;;8.74;100.00;98719.70;1683154;83;21045;-73
2022/02/22 11:22:17;;;;;;;23.87;11.70;;;;;;;8.73;100.00;98716.70;1707268;83;21547;-71
2022/02/22 11:24:53;;;;;;;21.60;12.00;;;;;;;8.72;100.00;98725.80;1568826;89;21105;-71